Time;durP1;ratioP1;P1;durP2;ratioP2;P2;SDS_P1;SDS_P2;PMS_P1;PMS_P2;Temp;Humidity;BMP_temperature;BMP_pressure;BME280_temperature;BME280_humidity;BME280_pressure;Samples;Min_cycle;Max_cycle;Signal;HPM_P1;HPM_P2
2023/11/06 00:00:31;;;;;;;3.85;1.50;;;11.80;84.60;;;;;;5004849;28;20389;-63
2023/11/06 00:02:58;;;;;;;0.57;0.47;;;11.80;84.60;;;;;;5027396;28;20083;-63
2023/11/06 00:05:24;;;;;;;3.10;1.10;;;11.90;84.60;;;;;;5022148;28;20093;-63
2023/11/06 00:07:50;;;;;;;1.92;1.08;;;11.90;84.60;;;;;;5035811;28;20053;-64
2023/11/06 00:10:16;;;;;;;1.02;0.68;;;11.90;84.50;;;;;;5034397;28;20048;-63
2023/11/06 00:12:41;;;;;;;1.13;0.70;;;11.90;84.60;;;;;;5030545;28;20026;-63
2023/11/06 00:15:09;;;;;;;2.05;1.05;;;11.90;84.50;;;;;;5030216;28;20338;-64
2023/11/06 00:17:37;;;;;;;2.97;0.90;;;11.90;84.40;;;;;;5030956;28;20111;-63
2023/11/06 00:20:03;;;;;;;4.20;1.65;;;11.90;84.30;;;;;;5012036;28;20033;-63
2023/11/06 00:22:30;;;;;;;0.50;0.50;;;11.90;84.20;;;;;;5013853;28;20022;-63
2023/11/06 00:24:56;;;;;;;1.08;0.65;;;11.90;84.20;;;;;;5026464;28;20553;-64
2023/11/06 00:27:25;;;;;;;2.90;0.93;;;12.00;84.30;;;;;;5031043;28;20036;-64
2023/11/06 00:29:51;;;;;;;0.38;0.38;;;11.90;84.20;;;;;;5025131;28;20061;-64
2023/11/06 00:32:17;;;;;;;4.68;1.70;;;11.90;84.20;;;;;;5030085;28;20025;-63
2023/11/06 00:34:43;;;;;;;1.08;0.80;;;11.80;84.30;;;;;;5028022;28;20030;-63
2023/11/06 00:37:11;;;;;;;3.08;0.90;;;11.80;84.40;;;;;;5028169;28;20519;-64
2023/11/06 00:39:37;;;;;;;0.95;0.80;;;11.80;84.40;;;;;;5011651;28;20421;-64
2023/11/06 00:42:04;;;;;;;1.63;1.00;;;11.80;84.50;;;;;;5027141;28;20021;-63
2023/11/06 00:44:29;;;;;;;0.47;0.45;;;11.70;84.40;;;;;;5028237;28;20390;-63
2023/11/06 00:46:55;;;;;;;1.67;1.15;;;11.70;84.50;;;;;;5031952;28;20022;-63
2023/11/06 00:49:21;;;;;;;2.85;0.77;;;11.70;84.50;;;;;;5028192;28;20073;-64
2023/11/06 00:51:47;;;;;;;3.20;0.73;;;11.70;84.50;;;;;;5029704;28;20033;-64
2023/11/06 00:54:16;;;;;;;3.85;0.55;;;11.70;84.40;;;;;;5027312;28;20068;-63
2023/11/06 00:56:42;;;;;;;2.92;0.60;;;11.80;84.40;;;;;;5030661;28;20351;-64
2023/11/06 00:59:07;;;;;;;4.00;0.60;;;11.80;84.30;;;;;;5031369;28;20044;-64
2023/11/06 01:01:33;;;;;;;3.28;0.88;;;11.80;84.30;;;;;;5013162;28;20436;-64
2023/11/06 01:03:59;;;;;;;4.75;0.93;;;11.80;84.20;;;;;;5010862;28;20506;-63
2023/11/06 01:06:25;;;;;;;3.67;1.33;;;11.80;84.30;;;;;;5034964;28;20477;-63
2023/11/06 01:08:50;;;;;;;2.42;0.77;;;11.80;84.20;;;;;;5031374;28;20022;-64
2023/11/06 01:11:16;;;;;;;0.93;0.70;;;11.80;84.30;;;;;;5028096;28;20060;-63
2023/11/06 01:13:42;;;;;;;0.93;0.68;;;11.70;84.40;;;;;;5030311;28;20060;-63
2023/11/06 01:16:08;;;;;;;0.90;0.63;;;11.70;84.40;;;;;;5030180;28;20480;-63
2023/11/06 01:18:34;;;;;;;1.27;0.40;;;11.70;84.40;;;;;;5029837;28;20149;-63
2023/11/06 01:21:00;;;;;;;3.60;1.00;;;11.70;84.50;;;;;;5029368;28;20044;-63
2023/11/06 01:23:26;;;;;;;1.60;0.65;;;11.70;85.00;;;;;;5026813;28;20532;-63
2023/11/06 01:25:52;;;;;;;2.33;0.70;;;11.70;84.50;;;;;;5029319;28;20066;-63
2023/11/06 01:28:18;;;;;;;0.93;0.50;;;11.70;84.50;;;;;;5031638;28;20032;-63
2023/11/06 01:30:44;;;;;;;3.03;0.60;;;11.70;84.40;;;;;;5028960;28;20107;-64
2023/11/06 01:33:10;;;;;;;0.60;0.60;;;11.70;84.40;;;;;;5031803;28;20041;-63
2023/11/06 01:35:37;;;;;;;0.38;0.38;;;11.60;84.30;;;;;;5011518;28;20037;-63
2023/11/06 01:38:02;;;;;;;0.90;0.57;;;11.60;84.40;;;;;;5029240;28;20084;-64
2023/11/06 01:40:31;;;;;;;1.13;0.82;;;11.60;84.30;;;;;;5027847;28;20033;-64
2023/11/06 01:43:04;;;;;;;1.10;0.57;;;11.60;84.90;;;;;;5030003;28;20116;-64
2023/11/06 01:45:29;;;;;;;;;;;11.60;84.20;;;;;;5026271;28;20022;-64
2023/11/06 01:47:55;;;;;;;2.92;0.88;;;11.60;84.30;;;;;;5029670;28;19967;-64
2023/11/06 01:50:21;;;;;;;1.17;0.95;;;11.50;84.30;;;;;;5025916;28;20097;-63
2023/11/06 01:52:47;;;;;;;7.38;0.47;;;11.60;84.20;;;;;;5027932;28;20511;-63
2023/11/06 01:55:13;;;;;;;3.03;0.73;;;11.60;84.20;;;;;;5011266;28;20021;-63
2023/11/06 01:57:39;;;;;;;1.45;0.50;;;11.60;84.10;;;;;;5029286;28;20091;-63
2023/11/06 02:00:07;;;;;;;4.95;0.60;;;11.60;84.00;;;;;;5028003;28;20053;-64
2023/11/06 02:02:33;;;;;;;0.55;0.32;;;11.70;83.90;;;;;;5029550;28;20088;-63
2023/11/06 02:04:59;;;;;;;0.30;0.30;;;11.70;83.80;;;;;;5024654;28;20101;-63
2023/11/06 02:07:25;;;;;;;3.80;0.50;;;11.70;83.70;;;;;;5027487;28;20121;-64
2023/11/06 02:09:50;;;;;;;3.33;0.80;;;11.70;83.60;;;;;;5028777;28;20037;-63
2023/11/06 02:12:16;;;;;;;1.05;0.60;;;11.70;83.70;;;;;;5027255;28;20039;-63
2023/11/06 02:14:52;;;;;;;1.58;0.45;;;11.70;83.60;;;;;;5026052;28;20033;-63
2023/11/06 02:17:19;;;;;;;0.68;0.30;;;11.70;83.60;;;;;;5010099;28;20053;-63
2023/11/06 02:19:45;;;;;;;7.20;1.05;;;11.70;83.80;;;;;;5029013;28;20428;-64
2023/11/06 02:22:11;;;;;;;0.57;0.40;;;11.70;83.80;;;;;;5003243;28;20026;-64
2023/11/06 02:24:37;;;;;;;0.95;0.40;;;11.80;83.80;;;;;;5028456;28;20613;-64
2023/11/06 02:27:04;;;;;;;4.20;1.15;;;11.80;83.80;;;;;;5023633;28;20052;-63
2023/11/06 02:29:29;;;;;;;2.85;0.55;;;11.80;83.70;;;;;;5024626;28;20037;-64
2023/11/06 02:31:56;;;;;;;2.45;0.70;;;11.80;83.70;;;;;;5009075;28;20109;-64
2023/11/06 02:34:23;;;;;;;2.53;1.00;;;11.80;83.60;;;;;;5004857;28;20040;-64
2023/11/06 02:36:49;;;;;;;0.52;0.52;;;11.80;83.70;;;;;;5011100;28;20053;-64
2023/11/06 02:39:14;;;;;;;0.80;0.60;;;11.80;83.70;;;;;;5006218;28;20030;-63
2023/11/06 02:41:40;;;;;;;1.58;1.10;;;11.80;83.90;;;;;;4990770;28;20098;-64
2023/11/06 02:44:06;;;;;;;0.85;0.68;;;11.80;83.90;;;;;;5011384;28;20037;-64
2023/11/06 02:46:32;;;;;;;6.25;1.45;;;11.80;84.00;;;;;;5009794;28;20375;-63
2023/11/06 02:48:58;;;;;;;1.30;0.75;;;11.80;84.00;;;;;;5008990;28;20110;-64
2023/11/06 02:51:24;;;;;;;1.33;0.95;;;11.80;84.10;;;;;;5013035;28;20048;-64
2023/11/06 02:53:50;;;;;;;0.52;0.52;;;11.80;84.10;;;;;;4996577;28;20036;-64
2023/11/06 02:56:16;;;;;;;1.30;0.80;;;11.80;84.10;;;;;;5010070;28;20050;-64
2023/11/06 02:58:41;;;;;;;1.98;0.70;;;11.80;84.20;;;;;;5010572;28;20149;-64
2023/11/06 03:01:07;;;;;;;0.50;0.50;;;11.80;84.20;;;;;;5007562;28;20029;-63
2023/11/06 03:03:34;;;;;;;0.82;0.75;;;11.80;84.20;;;;;;5001473;28;20497;-64
2023/11/06 03:05:59;;;;;;;0.60;0.60;;;11.80;84.20;;;;;;5011755;28;20033;-64
2023/11/06 03:08:25;;;;;;;1.10;0.70;;;11.80;84.30;;;;;;5013731;28;20510;-64
2023/11/06 03:10:51;;;;;;;6.30;1.17;;;11.80;84.30;;;;;;5018223;28;20120;-63
2023/11/06 03:13:17;;;;;;;1.83;1.30;;;11.80;84.30;;;;;;5010430;28;20038;-63
2023/11/06 03:15:44;;;;;;;0.90;0.73;;;11.80;84.30;;;;;;5014410;28;20048;-63
2023/11/06 03:18:10;;;;;;;1.75;1.40;;;11.80;84.40;;;;;;5006250;28;20031;-63
2023/11/06 03:20:35;;;;;;;4.07;0.82;;;11.80;84.50;;;;;;5001961;28;20065;-64
2023/11/06 03:23:01;;;;;;;0.73;0.70;;;11.70;84.50;;;;;;5008688;28;20046;-64
2023/11/06 03:25:27;;;;;;;1.02;0.90;;;11.70;84.50;;;;;;5008798;28;20034;-63
2023/11/06 03:27:53;;;;;;;0.77;0.77;;;11.80;84.50;;;;;;5011441;28;20129;-63
2023/11/06 03:30:19;;;;;;;3.60;1.10;;;11.80;84.40;;;;;;5020895;28;20042;-63
2023/11/06 03:32:46;;;;;;;2.35;0.98;;;11.80;84.50;;;;;;5029094;28;20026;-64
2023/11/06 03:35:12;;;;;;;0.50;0.50;;;11.80;84.50;;;;;;5025058;28;20087;-63
2023/11/06 03:37:38;;;;;;;0.98;0.50;;;11.80;84.50;;;;;;5013499;28;20029;-64
2023/11/06 03:40:04;;;;;;;1.52;0.93;;;11.80;84.50;;;;;;5026442;28;20029;-63
2023/11/06 03:42:29;;;;;;;0.80;0.80;;;11.80;84.50;;;;;;5026692;28;20120;-63
2023/11/06 03:44:55;;;;;;;0.85;0.70;;;11.80;84.40;;;;;;5026803;28;20128;-62
2023/11/06 03:47:21;;;;;;;2.60;0.98;;;11.80;84.50;;;;;;5025774;28;20055;-62
2023/11/06 03:49:46;;;;;;;1.42;0.73;;;11.80;84.50;;;;;;5026597;28;20034;-62
2023/11/06 03:52:12;;;;;;;1.35;0.52;;;11.80;84.40;;;;;;5009114;28;20033;-62
2023/11/06 03:54:38;;;;;;;1.88;0.95;;;11.80;84.50;;;;;;5029378;28;20033;-63
2023/11/06 03:57:04;;;;;;;0.85;0.75;;;11.80;84.40;;;;;;5032687;28;20029;-62
2023/11/06 03:59:30;;;;;;;1.65;0.82;;;11.70;84.30;;;;;;5031827;28;20036;-62
2023/11/06 04:01:55;;;;;;;5.43;1.30;;;11.70;84.30;;;;;;5015877;28;20501;-62
2023/11/06 04:04:21;;;;;;;2.17;0.65;;;11.70;84.20;;;;;;5030117;28;20022;-63
2023/11/06 04:06:47;;;;;;;0.73;0.73;;;11.70;84.30;;;;;;5025029;28;20683;-62
2023/11/06 04:09:13;;;;;;;1.83;0.63;;;11.70;84.30;;;;;;5036732;28;20021;-62
2023/11/06 04:11:40;;;;;;;0.40;0.30;;;11.70;84.20;;;;;;5029839;28;20044;-62
2023/11/06 04:14:06;;;;;;;1.00;0.70;;;11.70;84.20;;;;;;5028433;28;20040;-63
2023/11/06 04:16:32;;;;;;;1.15;0.65;;;11.70;84.10;;;;;;5013996;28;20037;-63
2023/11/06 04:18:59;;;;;;;1.30;1.08;;;11.70;84.00;;;;;;5030744;28;20394;-63
2023/11/06 04:21:26;;;;;;;0.40;0.40;;;11.70;84.00;;;;;;5030102;28;20490;-63
2023/11/06 04:23:52;;;;;;;1.70;0.73;;;11.70;83.90;;;;;;5014575;28;20064;-63
2023/11/06 04:26:18;;;;;;;1.80;0.50;;;11.70;84.10;;;;;;5029968;28;20091;-63
2023/11/06 04:28:43;;;;;;;1.00;0.65;;;11.60;84.00;;;;;;5030183;28;20037;-63
2023/11/06 04:31:09;;;;;;;1.50;0.65;;;11.60;84.10;;;;;;5003952;28;20437;-63
2023/11/06 04:33:35;;;;;;;1.23;0.90;;;11.60;84.00;;;;;;5030830;28;20034;-63
2023/11/06 04:36:00;;;;;;;0.85;0.52;;;11.50;84.00;;;;;;5028089;28;20029;-63
2023/11/06 04:38:26;;;;;;;0.68;0.55;;;11.50;84.10;;;;;;5031301;28;20049;-63
2023/11/06 04:40:52;;;;;;;1.95;0.35;;;11.50;84.20;;;;;;5029841;28;20099;-63
2023/11/06 04:43:17;;;;;;;1.83;0.90;;;11.50;84.10;;;;;;5008829;28;20056;-63
2023/11/06 04:45:43;;;;;;;2.17;0.55;;;11.40;84.10;;;;;;5031049;28;20037;-63
2023/11/06 04:48:09;;;;;;;3.03;0.70;;;11.40;84.20;;;;;;5025516;28;20040;-63
2023/11/06 04:50:36;;;;;;;1.00;0.25;;;11.40;84.30;;;;;;5028805;28;20026;-62
2023/11/06 04:53:02;;;;;;;0.28;0.28;;;11.40;84.20;;;;;;5026102;28;20493;-63
2023/11/06 04:55:28;;;;;;;0.93;0.57;;;11.30;84.10;;;;;;5025972;28;20064;-63
2023/11/06 04:57:54;;;;;;;1.90;0.70;;;11.30;84.10;;;;;;5032405;28;20115;-63
2023/11/06 05:00:19;;;;;;;2.50;0.50;;;11.30;84.10;;;;;;5029625;28;20037;-63
2023/11/06 05:02:45;;;;;;;1.30;0.73;;;11.30;84.20;;;;;;4994637;28;20112;-63
2023/11/06 05:05:11;;;;;;;3.67;0.70;;;11.30;84.20;;;;;;5028611;28;20021;-63
2023/11/06 05:07:37;;;;;;;0.70;0.70;;;11.20;84.10;;;;;;5030691;28;20029;-63
2023/11/06 05:10:06;;;;;;;0.57;0.55;;;11.20;84.00;;;;;;5013639;28;20033;-63
2023/11/06 05:12:32;;;;;;;1.33;0.47;;;11.20;84.10;;;;;;5017614;28;20042;-63
2023/11/06 05:15:00;;;;;;;1.48;0.70;;;11.20;84.10;;;;;;5027264;28;20437;-63
2023/11/06 05:17:26;;;;;;;1.25;0.60;;;11.20;84.10;;;;;;5027861;28;20049;-63
2023/11/06 05:19:51;;;;;;;2.35;0.57;;;11.20;84.10;;;;;;5008381;28;20029;-63
2023/11/06 05:22:20;;;;;;;0.38;0.38;;;11.20;84.10;;;;;;5007653;28;20028;-63
2023/11/06 05:24:47;;;;;;;0.65;0.50;;;11.20;84.10;;;;;;5002735;28;20060;-63
2023/11/06 05:27:13;;;;;;;0.40;0.40;;;11.20;84.10;;;;;;5008379;28;20538;-63
2023/11/06 05:29:39;;;;;;;0.40;0.38;;;11.20;84.00;;;;;;5009092;28;20079;-63
2023/11/06 05:32:06;;;;;;;2.75;0.32;;;11.20;83.90;;;;;;5025002;28;20080;-63
2023/11/06 05:34:32;;;;;;;1.08;0.70;;;11.20;84.00;;;;;;5027593;28;20546;-63
2023/11/06 05:36:58;;;;;;;1.10;0.60;;;11.20;83.90;;;;;;5028830;28;20025;-63
2023/11/06 05:39:24;;;;;;;0.65;0.30;;;11.20;83.80;;;;;;5027784;28;20519;-63
2023/11/06 05:41:50;;;;;;;0.68;0.40;;;11.10;83.70;;;;;;5027694;28;20108;-63
2023/11/06 05:44:17;;;;;;;1.00;0.52;;;11.10;83.70;;;;;;5028272;28;20055;-63
2023/11/06 05:46:43;;;;;;;0.68;0.38;;;11.10;83.70;;;;;;5028628;28;20029;-63
2023/11/06 05:49:10;;;;;;;0.30;0.30;;;11.10;83.70;;;;;;5010342;28;20033;-63
2023/11/06 05:51:37;;;;;;;2.03;0.70;;;11.10;83.70;;;;;;5027192;28;20042;-63
2023/11/06 05:54:03;;;;;;;1.05;0.43;;;11.10;83.60;;;;;;5028465;28;20033;-63
2023/11/06 05:56:29;;;;;;;0.82;0.55;;;11.10;83.60;;;;;;5027593;28;20022;-63
2023/11/06 05:58:54;;;;;;;1.55;0.70;;;11.10;83.50;;;;;;5010047;28;20040;-62
2023/11/06 06:01:20;;;;;;;2.92;0.35;;;11.10;83.50;;;;;;5006962;28;20505;-62
2023/11/06 06:03:45;;;;;;;1.02;0.40;;;11.20;83.60;;;;;;5027779;28;20021;-62
2023/11/06 06:06:12;;;;;;;0.60;0.40;;;11.20;83.60;;;;;;5027046;28;20021;-62
2023/11/06 08:01:09;;;;;;;1.05;0.60;;;11.50;82.40;;;;;;5060219;23;20555;-62
2023/11/06 08:03:35;;;;;;;4.28;1.25;;;11.50;82.20;;;;;;5060711;28;20033;-62
2023/11/06 08:06:01;;;;;;;3.67;0.95;;;11.60;82.10;;;;;;5065836;28;20035;-62
2023/11/06 08:08:26;;;;;;;7.00;2.03;;;11.70;82.00;;;;;;5067353;28;20170;-63
2023/11/06 08:10:52;;;;;;;4.13;1.25;;;11.70;81.50;;;;;;5063986;28;20463;-63
2023/11/06 08:13:18;;;;;;;1.30;0.80;;;11.80;81.40;;;;;;5060928;28;20382;-66
2023/11/06 08:15:43;;;;;;;0.98;0.80;;;11.80;81.10;;;;;;5061149;28;20036;-64
2023/11/06 08:18:09;;;;;;;2.13;0.80;;;11.80;80.80;;;;;;5059813;28;20029;-64
2023/11/06 08:20:34;;;;;;;2.20;1.20;;;11.90;80.80;;;;;;5054132;28;20040;-64
2023/11/06 08:23:00;;;;;;;4.78;1.23;;;11.90;80.40;;;;;;5042583;28;20032;-64
2023/11/06 08:28:48;;;;;;;8.02;1.60;;;12.00;79.30;;;;;;5055000;28;20075;-65
2023/11/06 08:31:17;;;;;;;4.90;1.30;;;11.90;79.50;;;;;;5043030;28;20052;-64
2023/11/06 08:33:42;;;;;;;1.55;0.70;;;11.90;79.30;;;;;;5064937;28;20116;-62
2023/11/06 08:36:09;;;;;;;1.80;1.15;;;11.90;79.30;;;;;;5058809;28;20830;-63
2023/11/06 08:38:35;;;;;;;1.13;1.02;;;12.00;79.30;;;;;;5063869;28;20028;-66
2023/11/06 08:41:02;;;;;;;3.60;0.77;;;12.10;79.10;;;;;;5043051;28;20295;-64
2023/11/06 08:43:28;;;;;;;4.47;1.45;;;12.00;78.90;;;;;;5061745;28;20576;-64
2023/11/06 08:45:54;;;;;;;2.35;0.95;;;12.00;78.90;;;;;;5059439;28;20108;-64
2023/11/06 08:48:20;;;;;;;2.17;0.93;;;12.00;78.80;;;;;;5062465;28;20048;-64
2023/11/06 08:50:48;;;;;;;4.25;1.73;;;12.10;78.90;;;;;;5057771;28;20036;-64
2023/11/06 08:53:14;;;;;;;3.83;1.30;;;12.20;78.60;;;;;;5060239;28;20067;-64
2023/11/06 08:55:39;;;;;;;4.57;1.25;;;12.40;78.50;;;;;;5042602;28;20049;-62
2023/11/06 08:58:09;;;;;;;3.85;0.95;;;12.50;77.80;;;;;;5060997;28;20044;-64
2023/11/06 09:00:35;;;;;;;1.15;0.93;;;12.60;77.80;;;;;;5062829;28;20033;-65
2023/11/06 09:03:03;;;;;;;7.68;1.08;;;12.70;77.60;;;;;;5059051;28;20396;-64
2023/11/06 09:05:28;;;;;;;4.32;0.90;;;12.80;77.40;;;;;;5067389;28;20052;-65
2023/11/06 09:07:54;;;;;;;6.30;0.85;;;12.90;77.60;;;;;;5057978;28;20025;-64
2023/11/06 09:10:20;;;;;;;1.25;0.80;;;12.80;77.30;;;;;;5057334;28;20100;-65
2023/11/06 09:12:45;;;;;;;8.20;1.88;;;12.80;77.40;;;;;;5058355;28;20051;-65
2023/11/06 09:15:11;;;;;;;4.07;1.23;;;13.00;77.50;;;;;;5059614;28;20051;-64
2023/11/06 09:17:37;;;;;;;6.88;1.40;;;13.00;77.70;;;;;;5059261;28;20389;-64
2023/11/06 09:20:03;;;;;;;8.00;2.72;;;13.10;76.30;;;;;;5064223;28;20074;-65
2023/11/06 09:22:29;;;;;;;1.70;1.00;;;13.10;76.20;;;;;;5061151;28;20225;-64
2023/11/06 09:24:55;;;;;;;3.92;0.60;;;13.20;76.50;;;;;;5058778;28;20417;-64
2023/11/06 09:27:20;;;;;;;1.95;1.05;;;13.20;76.50;;;;;;5056154;28;20055;-64
2023/11/06 09:29:46;;;;;;;1.90;1.10;;;13.30;76.20;;;;;;5057578;28;20190;-64
2023/11/06 09:32:12;;;;;;;6.43;1.00;;;13.40;76.20;;;;;;5042526;28;20497;-64
2023/11/06 09:34:37;;;;;;;4.20;1.88;;;13.50;76.20;;;;;;5043279;28;20397;-64
2023/11/06 09:37:03;;;;;;;3.10;1.25;;;13.70;75.90;;;;;;5061758;28;20166;-64
2023/11/06 09:39:29;;;;;;;3.92;0.90;;;13.70;75.60;;;;;;5054970;28;20567;-64
2023/11/06 09:41:55;;;;;;;3.03;1.00;;;13.70;74.90;;;;;;5062036;28;20123;-64
2023/11/06 09:44:21;;;;;;;6.20;0.75;;;13.60;74.70;;;;;;5056429;28;20020;-64
2023/11/06 09:46:47;;;;;;;2.80;0.90;;;13.60;75.00;;;;;;5060912;28;20090;-64
2023/11/06 09:49:22;;;;;;;3.45;1.27;;;13.50;74.70;;;;;;5061282;28;20040;-64
2023/11/06 09:51:52;;;;;;;7.30;1.35;;;13.50;74.40;;;;;;5046825;28;20485;-65
2023/11/06 09:54:20;;;;;;;1.58;0.80;;;13.50;74.60;;;;;;5061779;28;20539;-65
2023/11/06 09:56:46;;;;;;;1.95;0.95;;;13.60;74.60;;;;;;5054771;28;20107;-64
2023/11/06 09:59:12;;;;;;;4.68;1.02;;;13.70;74.80;;;;;;5057357;28;20046;-65
2023/11/06 10:01:39;;;;;;;2.42;1.02;;;13.90;74.50;;;;;;5055640;28;20055;-65
2023/11/06 10:04:05;;;;;;;5.82;1.33;;;14.00;74.20;;;;;;5065515;28;20054;-65
2023/11/06 10:06:31;;;;;;;6.28;1.35;;;14.00;73.90;;;;;;5066448;28;20036;-65
2023/11/06 10:08:57;;;;;;;2.35;1.08;;;14.10;73.80;;;;;;5038558;28;20112;-65
2023/11/06 10:11:25;;;;;;;5.63;1.20;;;14.10;73.80;;;;;;5064161;28;20064;-65
2023/11/06 10:13:55;;;;;;;0.82;0.80;;;14.20;73.30;;;;;;5058269;28;20035;-64
2023/11/06 10:16:22;;;;;;;2.80;0.98;;;14.20;72.60;;;;;;5054980;28;20032;-64
2023/11/06 10:19:08;;;;;;;4.97;1.45;;;14.00;72.20;;;;;;5064767;28;20131;-65
2023/11/06 10:21:34;;;;;;;2.83;0.80;;;14.00;72.50;;;;;;5060726;28;20021;-64
2023/11/06 10:24:02;;;;;;;1.33;0.93;;;13.90;72.60;;;;;;5065414;28;20039;-64
2023/11/06 10:26:31;;;;;;;6.63;1.67;;;13.90;72.70;;;;;;5060843;28;20025;-65
2023/11/06 10:29:11;;;;;;;8.15;1.15;;;13.80;73.10;;;;;;5057518;28;20029;-64
2023/11/06 10:31:41;;;;;;;6.70;1.20;;;13.70;73.00;;;;;;5040434;28;20405;-64
2023/11/06 10:34:29;;;;;;;1.30;0.82;;;13.80;73.20;;;;;;5061014;28;20025;-65
2023/11/06 10:37:13;;;;;;;1.00;0.90;;;13.80;73.10;;;;;;5025113;28;20044;-64
2023/11/06 10:39:40;;;;;;;4.18;1.02;;;14.00;73.20;;;;;;5056858;28;20028;-65
2023/11/06 10:42:09;;;;;;;3.40;1.40;;;14.00;72.80;;;;;;5055250;28;20091;-64
2023/11/06 10:44:39;;;;;;;2.75;1.70;;;14.20;73.30;;;;;;5055342;28;20043;-64
2023/11/06 10:47:07;;;;;;;10.02;1.67;;;14.40;72.50;;;;;;5021428;28;20027;-65
2023/11/06 10:49:35;;;;;;;3.90;0.93;;;14.50;71.80;;;;;;5055663;28;20424;-65
2023/11/06 10:52:04;;;;;;;2.08;1.23;;;14.70;71.50;;;;;;5035058;28;20045;-65
2023/11/06 10:54:30;;;;;;;1.77;1.00;;;14.90;71.30;;;;;;5037673;28;20090;-65
2023/11/06 10:56:58;;;;;;;6.38;1.88;;;15.00;70.20;;;;;;5035125;28;20029;-65
2023/11/06 10:59:32;;;;;;;4.53;1.73;;;15.00;69.20;;;;;;5051295;28;20098;-64
2023/11/06 11:01:58;;;;;;;3.78;1.40;;;14.90;69.90;;;;;;5033014;28;20036;-64
2023/11/06 11:04:25;;;;;;;6.30;1.55;;;14.90;69.60;;;;;;5059812;28;20112;-64
2023/11/06 11:06:55;;;;;;;2.25;1.17;;;14.90;69.90;;;;;;5052540;28;20082;-64
2023/11/06 11:09:20;;;;;;;1.75;0.88;;;14.80;69.90;;;;;;5052975;28;20075;-64
2023/11/06 11:11:47;;;;;;;2.15;0.75;;;14.70;70.00;;;;;;5054842;28;20500;-64
2023/11/06 11:14:13;;;;;;;3.65;1.33;;;14.70;70.30;;;;;;5054851;28;20028;-64
2023/11/06 11:16:50;;;;;;;3.03;1.10;;;14.70;69.30;;;;;;5039797;28;20041;-64
2023/11/06 11:19:31;;;;;;;5.10;1.73;;;14.70;69.70;;;;;;5057990;28;20604;-64
2023/11/06 11:22:12;;;;;;;5.32;1.00;;;14.70;69.80;;;;;;5058586;28;20024;-64
2023/11/06 11:24:50;;;;;;;2.78;0.80;;;14.60;70.30;;;;;;5037322;28;20083;-64
2023/11/06 11:27:21;;;;;;;4.75;1.40;;;14.50;70.00;;;;;;5060222;28;20029;-64
2023/11/06 11:29:56;;;;;;;1.95;1.27;;;14.40;70.70;;;;;;5058630;28;20048;-63
2023/11/06 11:32:22;;;;;;;4.72;0.68;;;14.30;70.30;;;;;;5053096;28;20374;-64
2023/11/06 11:34:55;;;;;;;1.75;0.93;;;14.20;70.50;;;;;;5051658;28;20045;-64
2023/11/06 11:37:30;;;;;;;3.08;0.95;;;14.20;71.00;;;;;;5052857;28;20063;-64
2023/11/06 11:39:58;;;;;;;7.03;1.65;;;14.20;71.30;;;;;;5058560;28;20139;-64
2023/11/06 11:42:24;;;;;;;1.95;0.93;;;14.20;71.60;;;;;;5060332;28;20167;-64
2023/11/06 11:45:01;;;;;;;4.45;1.10;;;14.20;71.70;;;;;;5059409;28;20036;-64
2023/11/06 11:47:49;;;;;;;3.00;1.85;;;14.10;71.60;;;;;;5053813;28;20033;-64
2023/11/06 11:50:27;;;;;;;2.85;1.08;;;14.10;72.00;;;;;;5057097;28;20055;-65
2023/11/06 11:52:53;;;;;;;1.67;1.23;;;14.00;72.00;;;;;;5052236;28;20035;-64
2023/11/06 11:55:39;;;;;;;13.02;1.25;;;14.00;72.20;;;;;;5056484;28;20501;-64
2023/11/06 11:58:10;;;;;;;2.78;0.73;;;14.10;72.10;;;;;;5057149;28;20086;-65
2023/11/06 12:00:40;;;;;;;4.95;1.55;;;14.10;72.40;;;;;;5056578;28;20067;-64
2023/11/06 12:03:16;;;;;;;2.33;1.65;;;14.10;72.30;;;;;;5042521;28;20025;-64
2023/11/06 12:05:55;;;;;;;1.58;0.80;;;14.00;72.20;;;;;;5051334;28;20033;-65
2023/11/06 12:08:23;;;;;;;4.43;1.30;;;14.00;72.30;;;;;;5059152;28;20485;-64
2023/11/06 12:10:50;;;;;;;2.78;1.13;;;14.00;71.90;;;;;;5031798;28;20584;-64
2023/11/06 12:13:22;;;;;;;1.30;1.20;;;14.10;72.30;;;;;;5054815;28;20032;-64
2023/11/06 12:15:49;;;;;;;2.53;1.15;;;14.10;72.10;;;;;;5058634;28;20024;-64
2023/11/06 12:18:16;;;;;;;6.38;1.55;;;14.20;72.20;;;;;;5064303;28;20033;-65
2023/11/06 12:20:44;;;;;;;4.97;0.70;;;14.30;72.30;;;;;;5066221;28;20033;-65
2023/11/06 12:23:10;;;;;;;6.65;1.33;;;14.80;72.20;;;;;;5058298;28;20115;-65
2023/11/06 12:25:38;;;;;;;2.80;0.77;;;15.20;70.50;;;;;;5038983;28;20123;-64
2023/11/06 12:28:09;;;;;;;2.85;1.25;;;15.30;70.00;;;;;;5062377;28;20032;-65
2023/11/06 12:30:36;;;;;;;5.22;1.83;;;15.30;70.00;;;;;;5047850;28;20036;-65
2023/11/06 12:33:20;;;;;;;4.25;1.10;;;15.20;69.70;;;;;;5039954;28;20492;-65
2023/11/06 12:35:49;;;;;;;2.65;0.98;;;14.90;69.80;;;;;;5044038;28;20092;-64
2023/11/06 12:38:37;;;;;;;2.40;1.40;;;14.70;70.60;;;;;;5062144;28;20047;-65
2023/11/06 12:41:07;;;;;;;2.20;1.00;;;14.60;70.60;;;;;;5058394;28;20044;-65
2023/11/06 12:43:34;;;;;;;2.33;0.63;;;14.50;71.30;;;;;;5042178;28;20059;-64
2023/11/06 12:46:00;;;;;;;4.60;1.88;;;14.40;70.70;;;;;;5065466;28;20039;-64
2023/11/06 12:48:30;;;;;;;2.22;0.93;;;14.30;71.10;;;;;;5064912;28;20039;-65
2023/11/06 12:51:09;;;;;;;2.45;1.23;;;14.20;71.30;;;;;;5060708;28;20465;-65
2023/11/06 12:53:36;;;;;;;5.60;1.17;;;14.20;71.50;;;;;;5046411;28;20087;-64
2023/11/06 12:56:03;;;;;;;4.47;1.25;;;14.10;71.50;;;;;;5041870;28;20021;-65
2023/11/06 12:58:29;;;;;;;2.38;1.00;;;14.00;72.00;;;;;;5062729;28;20033;-63
2023/11/06 13:00:58;;;;;;;3.42;1.45;;;14.00;72.30;;;;;;5058009;28;20519;-63
2023/11/06 13:03:31;;;;;;;3.13;1.13;;;13.90;72.40;;;;;;5058901;28;20025;-65
2023/11/06 13:05:58;;;;;;;2.03;0.90;;;14.00;72.70;;;;;;5060165;28;20029;-63
2023/11/06 13:08:35;;;;;;;4.82;1.42;;;13.80;73.30;;;;;;5063515;28;20029;-63
2023/11/06 13:11:03;;;;;;;1.65;1.13;;;13.70;74.10;;;;;;5063351;28;20114;-66
2023/11/06 13:13:33;;;;;;;1.15;1.00;;;13.60;74.70;;;;;;5065719;28;20029;-65
2023/11/06 13:16:00;;;;;;;1.05;0.82;;;13.60;75.30;;;;;;5063489;28;20106;-65
2023/11/06 13:18:30;;;;;;;5.28;1.05;;;13.60;75.50;;;;;;5061651;28;20040;-64
2023/11/06 13:21:05;;;;;;;3.47;1.17;;;13.60;75.50;;;;;;5039761;28;20029;-64
2023/11/06 13:23:31;;;;;;;2.60;1.33;;;13.60;75.70;;;;;;5055480;28;20043;-65
2023/11/06 13:25:56;;;;;;;2.13;0.95;;;13.60;75.70;;;;;;5060721;28;20044;-65
2023/11/06 13:28:22;;;;;;;2.67;0.85;;;13.70;75.80;;;;;;5064579;28;20031;-65
2023/11/06 13:30:48;;;;;;;3.42;1.60;;;13.70;75.70;;;;;;5065040;28;20039;-65
2023/11/06 13:33:14;;;;;;;3.22;0.77;;;13.70;75.70;;;;;;5064191;28;20104;-65
2023/11/06 13:35:41;;;;;;;2.70;1.08;;;13.70;75.60;;;;;;5045104;28;20029;-64
2023/11/06 13:38:08;;;;;;;3.25;0.82;;;13.70;75.70;;;;;;5063632;28;20516;-64
2023/11/06 13:40:35;;;;;;;1.67;0.68;;;13.70;75.60;;;;;;5064066;28;20035;-63
2023/11/06 13:43:02;;;;;;;2.38;0.80;;;13.70;75.60;;;;;;5047228;28;20052;-64
2023/11/06 13:45:29;;;;;;;2.03;0.70;;;13.70;75.50;;;;;;5062864;28;20508;-62
2023/11/06 13:47:56;;;;;;;0.90;0.63;;;13.70;75.60;;;;;;5065292;28;20028;-63
2023/11/06 13:53:09;;;;;;;10.02;1.70;;;13.80;75.10;;;;;;5063099;28;20048;-63
2023/11/06 13:55:40;;;;;;;1.02;0.70;;;13.70;75.20;;;;;;5055697;28;20409;-64
2023/11/06 13:58:13;;;;;;;3.03;0.70;;;13.70;75.50;;;;;;5056295;28;20140;-62
2023/11/06 14:00:45;;;;;;;1.08;0.60;;;13.80;75.70;;;;;;5039859;28;20045;-63
2023/11/06 14:03:16;;;;;;;0.57;0.57;;;13.80;75.50;;;;;;5058518;28;20429;-62
2023/11/06 14:05:46;;;;;;;1.88;0.82;;;13.70;75.10;;;;;;5053599;28;20020;-63
2023/11/06 14:08:18;;;;;;;1.05;0.95;;;13.60;75.30;;;;;;5065154;28;20031;-63
2023/11/06 14:10:50;;;;;;;0.60;0.60;;;13.60;75.40;;;;;;5058812;28;20500;-62
2023/11/06 14:13:21;;;;;;;1.58;0.63;;;13.70;75.60;;;;;;5060356;28;20131;-64
2023/11/06 14:15:51;;;;;;;4.88;0.90;;;13.70;75.20;;;;;;5067769;28;20060;-63
2023/11/06 14:18:23;;;;;;;6.40;1.33;;;13.80;75.30;;;;;;5067090;28;20115;-64
2023/11/06 14:20:53;;;;;;;0.68;0.65;;;13.70;75.00;;;;;;5045024;28;20020;-63
2023/11/06 14:23:24;;;;;;;3.03;1.05;;;13.80;75.10;;;;;;5047386;28;20021;-62
2023/11/06 14:26:00;;;;;;;1.25;0.60;;;13.80;75.10;;;;;;5064652;28;20036;-64
2023/11/06 14:28:27;;;;;;;3.30;1.10;;;14.10;74.80;;;;;;5058363;28;20299;-64
2023/11/06 14:30:53;;;;;;;1.50;0.60;;;14.30;74.40;;;;;;5062920;28;20032;-63
2023/11/06 14:33:24;;;;;;;1.35;1.00;;;14.30;74.00;;;;;;5067555;28;20024;-63
2023/11/06 14:35:54;;;;;;;2.03;1.15;;;14.30;74.00;;;;;;5062962;28;20028;-63
2023/11/06 14:38:21;;;;;;;2.53;1.42;;;14.20;74.10;;;;;;5061827;28;20024;-64
2023/11/06 14:40:55;;;;;;;1.10;0.70;;;14.10;74.90;;;;;;5056915;28;20028;-64
2023/11/06 14:43:22;;;;;;;2.03;1.08;;;14.00;74.60;;;;;;5061543;28;20060;-65
2023/11/06 14:45:49;;;;;;;1.15;0.77;;;13.90;74.80;;;;;;5063933;28;20108;-63
2023/11/06 14:48:15;;;;;;;1.00;0.50;;;13.90;75.10;;;;;;5058126;28;20435;-62